createdAt,value
2018-01-14T00:00:54.904Z,10.67
2018-01-14T00:03:22.558Z,13.13
2018-01-14T00:05:51.542Z,11.03
2018-01-14T00:08:19.947Z,11.53
2018-01-14T00:10:49.419Z,11.80
2018-01-14T00:13:18.742Z,11.40
2018-01-14T00:15:52.724Z,11.73
2018-01-14T00:18:21.736Z,11.43
2018-01-14T00:20:50.331Z,11.90
2018-01-14T00:23:19.233Z,11.53
2018-01-14T00:25:46.824Z,10.83
2018-01-14T00:28:15.158Z,11.20
2018-01-14T00:30:45.326Z,11.27
2018-01-14T00:33:14.724Z,10.03
2018-01-14T00:35:43.012Z,9.93
2018-01-14T00:38:13.382Z,10.73
2018-01-14T00:40:45.588Z,11.23
2018-01-14T00:43:14.606Z,10.83
2018-01-14T00:45:42.793Z,10.93
2018-01-14T00:48:12.584Z,9.53
2018-01-14T00:50:41.942Z,10.60
2018-01-14T00:53:10.120Z,11.07
2018-01-14T00:55:40.143Z,10.20
2018-01-14T00:58:11.653Z,11.30
2018-01-14T01:00:39.241Z,11.03
2018-01-14T01:03:07.524Z,10.20
2018-01-14T01:05:35.933Z,10.50
2018-01-14T01:08:04.438Z,12.37
2018-01-14T01:10:32.198Z,11.80
2018-01-14T01:12:59.890Z,11.73
2018-01-14T01:15:27.474Z,12.03
2018-01-14T01:17:55.842Z,11.90
2018-01-14T01:20:23.408Z,11.90
2018-01-14T01:22:50.988Z,11.60
2018-01-14T01:25:20.432Z,12.80
2018-01-14T01:27:48.044Z,12.83
2018-01-14T01:30:15.648Z,12.33
2018-01-14T01:32:43.947Z,13.00
2018-01-14T01:35:11.534Z,12.20
2018-01-14T01:37:39.074Z,12.23
2018-01-14T01:40:07.369Z,12.53
2018-01-14T01:42:34.978Z,11.73
2018-01-14T01:45:02.551Z,12.07
2018-01-14T01:47:30.117Z,11.97
2018-01-14T01:49:57.752Z,12.90
2018-01-14T01:52:25.326Z,12.33
2018-01-14T01:54:53.393Z,13.23
2018-01-14T01:57:20.985Z,12.80
2018-01-14T01:59:48.555Z,12.90
2018-01-14T02:02:16.091Z,12.20
2018-01-14T02:04:43.670Z,13.17
2018-01-14T02:07:11.203Z,11.57
2018-01-14T02:09:38.737Z,11.50
2018-01-14T02:12:06.926Z,12.17
2018-01-14T02:14:35.213Z,12.83
2018-01-14T02:17:02.762Z,12.60
2018-01-14T02:19:31.192Z,13.40
2018-01-14T02:21:58.733Z,13.10
2018-01-14T02:24:26.433Z,11.90
2018-01-14T02:26:54.018Z,12.90
2018-01-14T02:29:21.538Z,13.80
2018-01-14T02:31:49.110Z,12.60
2018-01-14T02:34:17.796Z,12.90
2018-01-14T02:36:45.368Z,12.70
2018-01-14T02:39:12.950Z,12.30
2018-01-14T02:41:40.519Z,11.20
2018-01-14T02:44:09.487Z,13.33
2018-01-14T02:46:37.061Z,12.17
2018-01-14T02:49:05.429Z,12.97
2018-01-14T02:51:33.782Z,13.23
2018-01-14T02:54:02.862Z,11.60
2018-01-14T02:56:30.436Z,11.47
2018-01-14T02:58:58.027Z,12.20
2018-01-14T03:01:25.778Z,12.20
2018-01-14T03:03:53.341Z,12.00
2018-01-14T03:06:20.883Z,11.70
2018-01-14T03:08:48.625Z,11.80
2018-01-14T03:11:16.935Z,11.37
2018-01-14T03:13:44.486Z,11.63
2018-01-14T03:16:12.076Z,13.40
2018-01-14T03:18:39.617Z,12.37
2018-01-14T03:21:07.135Z,13.00
2018-01-14T03:23:34.725Z,13.00
2018-01-14T03:26:02.281Z,12.93
2018-01-14T03:28:29.815Z,13.30
2018-01-14T03:30:58.017Z,14.13
2018-01-14T03:33:25.619Z,13.90
2018-01-14T03:35:53.207Z,15.00
2018-01-14T03:38:21.503Z,14.00
2018-01-14T03:40:49.060Z,15.03
2018-01-14T03:43:16.663Z,15.30
2018-01-14T03:45:44.256Z,14.37
2018-01-14T03:48:11.872Z,14.33
2018-01-14T03:50:40.304Z,14.23
2018-01-14T03:53:07.865Z,15.23
2018-01-14T03:55:36.416Z,15.07
2018-01-14T03:58:04.705Z,14.87
2018-01-14T04:00:32.232Z,15.90
2018-01-14T04:03:00.610Z,14.20
2018-01-14T04:05:29.717Z,14.93
2018-01-14T04:07:57.300Z,14.80
2018-01-14T04:10:25.581Z,14.70
2018-01-14T04:12:53.155Z,15.20
2018-01-14T04:15:20.694Z,14.90
2018-01-14T04:17:48.308Z,16.87
2018-01-14T04:20:15.858Z,14.87
2018-01-14T04:22:43.374Z,15.60
2018-01-14T04:25:11.758Z,17.03
2018-01-14T04:27:39.374Z,16.73
2018-01-14T04:30:06.959Z,17.80
2018-01-14T04:32:34.585Z,15.87
2018-01-14T04:35:03.135Z,16.90
2018-01-14T04:37:31.418Z,18.60
2018-01-14T04:39:59.038Z,16.60
2018-01-14T04:42:27.383Z,16.23
2018-01-14T04:44:54.940Z,18.47
2018-01-14T04:47:22.516Z,16.07
2018-01-14T04:49:50.857Z,17.30
2018-01-14T04:52:18.420Z,17.40
2018-01-14T04:54:45.988Z,17.60
2018-01-14T04:57:13.537Z,17.60
2018-01-14T04:59:41.074Z,16.10
2018-01-14T05:02:09.424Z,16.70
2018-01-14T05:04:37.015Z,17.20
2018-01-14T05:07:04.633Z,16.90
2018-01-14T05:09:32.158Z,17.60
2018-01-14T05:11:59.770Z,16.93
2018-01-14T05:14:27.903Z,16.33
2018-01-14T05:16:56.191Z,15.60
2018-01-14T05:19:23.769Z,16.80
2018-01-14T05:21:51.361Z,16.70
2018-01-14T05:24:18.919Z,17.97
2018-01-14T05:26:47.414Z,17.17
2018-01-14T05:29:15.841Z,16.57
2018-01-14T05:31:43.422Z,15.13
2018-01-14T05:34:10.967Z,15.50
2018-01-14T05:36:40.337Z,14.87
2018-01-14T05:39:08.071Z,14.87
2018-01-14T05:41:35.615Z,14.47
2018-01-14T05:44:04.027Z,15.73
2018-01-14T05:46:31.612Z,16.10
2018-01-14T05:48:59.167Z,15.10
2018-01-14T05:51:29.127Z,15.23
2018-01-14T05:53:56.715Z,14.00
2018-01-14T05:56:24.267Z,15.67
2018-01-14T05:58:51.900Z,14.93
2018-01-14T06:01:19.498Z,14.83
2018-01-14T06:03:47.048Z,15.67
2018-01-14T06:06:14.753Z,15.73
2018-01-14T06:08:42.374Z,16.23
2018-01-14T06:11:09.954Z,15.30
2018-01-14T06:13:37.516Z,16.07
2018-01-14T06:16:05.106Z,14.93
2018-01-14T06:18:32.672Z,16.30
2018-01-14T06:21:00.246Z,17.33
2018-01-14T06:23:27.831Z,16.43
2018-01-14T06:25:55.453Z,16.20
2018-01-14T06:28:23.008Z,17.30
2018-01-14T06:30:51.353Z,17.40
2018-01-14T06:33:18.905Z,17.80
2018-01-14T06:35:46.478Z,17.30
2018-01-14T06:38:14.064Z,16.73
2018-01-14T06:40:41.625Z,16.40
2018-01-14T06:43:09.223Z,16.40
2018-01-14T06:45:37.677Z,14.67
2018-01-14T06:48:05.214Z,17.73
2018-01-14T06:50:32.771Z,16.37
2018-01-14T06:53:00.388Z,16.83
2018-01-14T06:55:27.974Z,17.10
2018-01-14T06:57:55.506Z,17.27
2018-01-14T07:00:23.093Z,16.90
2018-01-14T07:02:52.404Z,17.70
2018-01-14T07:05:20.050Z,15.60
2018-01-14T07:07:47.576Z,16.43
2018-01-14T07:10:15.907Z,17.40
2018-01-14T07:12:43.512Z,15.30
2018-01-14T07:15:11.801Z,15.73
2018-01-14T07:17:39.389Z,15.33
2018-01-14T07:20:08.486Z,17.07
2018-01-14T07:22:36.109Z,16.37
2018-01-14T07:25:03.760Z,17.03
2018-01-14T07:27:31.289Z,17.90
2018-01-14T07:29:58.826Z,18.37
2018-01-14T07:32:26.469Z,16.90
2018-01-14T07:34:54.020Z,16.97
2018-01-14T07:37:22.338Z,19.07
2018-01-14T07:39:49.993Z,17.20
2018-01-14T07:42:17.581Z,16.40
2018-01-14T07:44:45.125Z,17.97
2018-01-14T07:47:13.455Z,17.53
2018-01-14T07:49:41.008Z,15.97
2018-01-14T07:52:08.602Z,16.27
2018-01-14T07:54:36.201Z,15.00
2018-01-14T07:57:03.809Z,15.27
2018-01-14T07:59:31.338Z,14.13
2018-01-14T08:01:59.009Z,16.40
2018-01-14T08:04:26.643Z,15.47
2018-01-14T08:06:54.773Z,15.23
2018-01-14T08:09:22.633Z,16.77
2018-01-14T08:11:50.182Z,16.43
2018-01-14T08:14:19.239Z,15.80
2018-01-14T08:16:46.790Z,16.47
2018-01-14T08:19:14.341Z,16.00
2018-01-14T08:21:42.006Z,15.20
2018-01-14T08:24:09.602Z,16.73
2018-01-14T08:26:37.926Z,16.43
2018-01-14T08:29:05.482Z,15.80
2018-01-14T08:31:33.073Z,16.97
2018-01-14T08:34:00.633Z,16.70
2018-01-14T08:36:28.202Z,17.30
2018-01-14T08:38:57.330Z,17.00
2018-01-14T08:41:24.909Z,16.67
2018-01-14T08:43:52.519Z,17.40
2018-01-14T08:46:20.110Z,17.73
2018-01-14T08:48:47.647Z,18.23
2018-01-14T08:51:15.838Z,18.20
2018-01-14T08:53:44.274Z,17.17
2018-01-14T08:56:11.813Z,17.30
2018-01-14T08:58:39.430Z,17.37
2018-01-14T09:01:07.045Z,18.73
2018-01-14T09:03:35.298Z,18.20
2018-01-14T09:06:02.898Z,16.30
2018-01-14T09:08:30.648Z,16.97
2018-01-14T09:10:58.226Z,16.37
2018-01-14T09:13:25.799Z,17.30
2018-01-14T09:15:53.439Z,16.67
2018-01-14T09:18:21.002Z,17.17
2018-01-14T09:20:48.612Z,17.03
2018-01-14T09:23:17.295Z,16.00
2018-01-14T09:25:44.831Z,15.67
2018-01-14T09:28:12.388Z,16.63
2018-01-14T09:31:06.871Z,16.03
2018-01-14T09:33:34.494Z,15.73
2018-01-14T09:36:02.056Z,17.17
2018-01-14T09:38:29.630Z,15.50
2018-01-14T09:40:57.226Z,16.40
2018-01-14T09:43:24.769Z,16.17
2018-01-14T09:45:52.367Z,16.53
2018-01-14T09:48:20.847Z,15.47
2018-01-14T09:50:48.479Z,17.07
2018-01-14T09:53:17.340Z,15.33
2018-01-14T09:55:44.929Z,13.73
2018-01-14T09:58:12.597Z,13.57
2018-01-14T10:00:40.410Z,14.23
2018-01-14T10:03:07.966Z,14.60
2018-01-14T10:05:35.584Z,14.43
2018-01-14T10:08:03.114Z,14.03
2018-01-14T10:10:30.716Z,15.20
2018-01-14T10:12:58.260Z,15.13
2018-01-14T10:15:25.857Z,15.03
2018-01-14T10:17:53.446Z,15.03
2018-01-14T10:20:21.382Z,16.93
2018-01-14T10:22:48.939Z,15.50
2018-01-14T10:25:17.534Z,13.53
2018-01-14T10:27:45.079Z,16.00
2018-01-14T10:30:13.448Z,14.27
2018-01-14T10:32:41.026Z,15.80
2018-01-14T10:35:09.392Z,15.63
2018-01-14T10:37:37.099Z,15.23
2018-01-14T10:40:04.827Z,15.43
2018-01-14T10:42:32.479Z,14.33
2018-01-14T10:45:01.004Z,12.43
2018-01-14T10:47:28.969Z,14.47
2018-01-14T10:49:56.585Z,13.17
2018-01-14T10:52:24.217Z,13.30
2018-01-14T10:54:52.290Z,13.30
2018-01-14T10:57:19.867Z,15.10
2018-01-14T10:59:47.450Z,13.97
2018-01-14T11:02:15.814Z,13.00
2018-01-14T11:04:44.071Z,12.57
2018-01-14T11:07:12.258Z,13.67
2018-01-14T11:09:41.023Z,13.87
2018-01-14T11:12:10.561Z,13.40
2018-01-14T11:14:38.135Z,13.40
2018-01-14T11:17:06.621Z,13.90
2018-01-14T11:19:36.365Z,14.07
2018-01-14T11:22:03.923Z,14.97
2018-01-14T11:24:31.971Z,13.70
2018-01-14T11:26:59.626Z,14.00
2018-01-14T11:29:39.678Z,15.73
2018-01-14T11:32:07.356Z,15.20
2018-01-14T11:34:35.639Z,15.73
2018-01-14T11:37:03.754Z,16.43
2018-01-14T11:39:32.337Z,15.20
2018-01-14T11:42:00.351Z,15.50
2018-01-14T11:44:27.922Z,14.73
2018-01-14T11:46:55.548Z,14.30
2018-01-14T11:49:23.151Z,15.70
2018-01-14T11:51:50.743Z,13.57
2018-01-14T11:54:18.336Z,15.43
2018-01-14T11:56:46.451Z,14.53
2018-01-14T11:59:14.061Z,16.23
2018-01-14T12:01:41.641Z,14.30
2018-01-14T12:04:09.263Z,14.13
2018-01-14T12:06:36.845Z,14.60
2018-01-14T12:09:04.500Z,15.10
2018-01-14T12:11:32.120Z,15.40
2018-01-14T12:13:59.699Z,13.90
2018-01-14T12:16:27.291Z,15.00
2018-01-14T12:18:55.569Z,13.77
2018-01-14T12:21:23.375Z,14.47
2018-01-14T12:23:51.150Z,16.50
2018-01-14T12:26:18.735Z,15.60
2018-01-14T12:28:46.358Z,15.73
2018-01-14T12:31:13.904Z,14.67
2018-01-14T12:34:06.307Z,14.67
2018-01-14T12:36:33.863Z,14.73
2018-01-14T12:39:01.421Z,13.27
2018-01-14T12:41:29.004Z,14.30
2018-01-14T12:43:57.336Z,15.80
2018-01-14T12:46:24.934Z,15.23
2018-01-14T12:48:53.233Z,15.23
2018-01-14T12:51:20.803Z,16.57
2018-01-14T12:53:49.106Z,16.27
2018-01-14T12:56:17.296Z,17.00
2018-01-14T12:58:44.876Z,16.20
2018-01-14T13:01:12.400Z,15.70
2018-01-14T13:03:39.992Z,17.47
2018-01-14T13:06:07.725Z,18.10
2018-01-14T13:08:35.289Z,17.63
2018-01-14T13:11:02.807Z,18.00
2018-01-14T13:13:31.458Z,16.67
2018-01-14T13:15:59.059Z,16.40
2018-01-14T13:18:26.869Z,16.17
2018-01-14T13:20:54.432Z,17.47
2018-01-14T13:23:22.113Z,17.63
2018-01-14T13:25:49.967Z,18.63
2018-01-14T13:28:17.690Z,17.03
2018-01-14T13:30:45.263Z,18.17
2018-01-14T13:33:13.485Z,18.20
2018-01-14T13:35:41.365Z,18.40
2018-01-14T13:38:08.951Z,18.80
2018-01-14T13:40:36.493Z,19.30
2018-01-14T13:43:04.856Z,18.37
2018-01-14T13:45:33.972Z,17.23
2018-01-14T13:48:01.557Z,16.93
2018-01-14T13:50:29.142Z,16.67
2018-01-14T13:52:56.731Z,17.60
2018-01-14T13:55:24.275Z,17.30
2018-01-14T13:57:51.887Z,17.90
2018-01-14T14:00:21.226Z,18.27
2018-01-14T14:02:48.786Z,17.37
2018-01-14T14:05:16.414Z,18.70
2018-01-14T14:07:44.128Z,17.47
2018-01-14T14:10:11.682Z,18.60
2018-01-14T14:12:39.232Z,17.17
2018-01-14T14:15:07.397Z,16.70
2018-01-14T14:17:34.964Z,18.60
2018-01-14T14:20:02.544Z,18.53
2018-01-14T14:22:30.160Z,19.97
2018-01-14T14:24:57.999Z,18.93
2018-01-14T14:27:25.658Z,19.03
2018-01-14T14:29:53.226Z,20.37
2018-01-14T14:32:21.517Z,19.30
2018-01-14T14:34:49.214Z,19.00
2018-01-14T14:37:16.782Z,21.00
2018-01-14T14:39:44.452Z,19.70
2018-01-14T14:42:12.533Z,19.67
2018-01-14T14:44:42.018Z,19.73
2018-01-14T14:47:11.518Z,21.87
2018-01-14T14:49:39.099Z,18.83
2018-01-14T14:52:07.203Z,19.90
2018-01-14T14:54:35.855Z,20.43
2018-01-14T14:57:03.428Z,19.80
2018-01-14T14:59:31.876Z,20.53
2018-01-14T15:01:59.441Z,22.10
2018-01-14T15:04:27.082Z,21.40
2018-01-14T15:06:54.630Z,18.17
2018-01-14T15:09:22.455Z,19.33
2018-01-14T15:11:50.048Z,20.50
2018-01-14T15:14:17.597Z,20.03
2018-01-14T15:16:45.720Z,21.33
2018-01-14T15:19:13.283Z,20.77
2018-01-14T15:21:40.858Z,19.87
2018-01-14T15:24:08.497Z,22.73
2018-01-14T15:26:36.039Z,21.53
2018-01-14T15:29:03.658Z,21.87
2018-01-14T15:31:32.023Z,22.20
2018-01-14T15:33:59.616Z,22.23
2018-01-14T15:36:27.149Z,20.60
2018-01-14T15:38:54.709Z,21.43
2018-01-14T15:41:24.046Z,20.80
2018-01-14T15:43:51.727Z,23.30
2018-01-14T15:46:19.292Z,23.10
2018-01-14T15:48:47.011Z,21.70
2018-01-14T15:51:15.239Z,21.43
2018-01-14T15:53:42.804Z,21.00
2018-01-14T15:56:10.425Z,22.40
2018-01-14T15:58:38.456Z,20.30
2018-01-14T16:01:06.012Z,21.90
2018-01-14T16:03:33.573Z,22.60
2018-01-14T16:06:01.773Z,22.70
2018-01-14T16:08:30.171Z,24.37
2018-01-14T16:10:58.690Z,22.60
2018-01-14T16:13:26.308Z,22.43
2018-01-14T16:15:54.341Z,22.97
2018-01-14T16:18:21.949Z,22.70
2018-01-14T16:20:49.586Z,21.70
2018-01-14T16:23:17.173Z,22.50
2018-01-14T16:25:44.805Z,22.67
2018-01-14T16:28:13.173Z,22.40
2018-01-14T16:30:40.800Z,21.77
2018-01-14T16:33:08.447Z,22.03
2018-01-14T16:35:36.058Z,22.13
2018-01-14T16:38:03.607Z,20.97
2018-01-14T16:40:31.158Z,19.57
2018-01-14T16:42:58.778Z,22.17
2018-01-14T16:45:26.365Z,20.10
2018-01-14T16:47:54.010Z,20.10
2018-01-14T16:50:21.581Z,22.00
2018-01-14T16:52:49.335Z,24.07
2018-01-14T16:55:17.634Z,24.17
2018-01-14T16:57:45.171Z,21.00
2018-01-14T17:00:12.865Z,19.57
2018-01-14T17:02:40.470Z,20.67
2018-01-14T17:05:08.910Z,19.30
2018-01-14T17:07:36.568Z,20.80
2018-01-14T17:10:04.435Z,21.40
2018-01-14T17:12:32.075Z,21.23
2018-01-14T17:14:59.638Z,20.33
2018-01-14T17:17:27.239Z,19.93
2018-01-14T17:19:54.849Z,22.00
2018-01-14T17:22:22.438Z,20.40
2018-01-14T17:24:51.330Z,21.20
2018-01-14T17:27:18.930Z,18.83
2018-01-14T17:29:47.328Z,19.07
2018-01-14T17:32:15.532Z,20.67
2018-01-14T17:34:43.090Z,19.73
2018-01-14T17:37:11.403Z,19.87
2018-01-14T17:39:39.107Z,20.57
2018-01-14T17:42:07.013Z,22.23
2018-01-14T17:44:34.689Z,19.93
2018-01-14T17:47:03.193Z,18.53
2018-01-14T17:49:30.973Z,19.60
2018-01-14T17:51:58.613Z,21.73
2018-01-14T17:54:27.013Z,20.73
2018-01-14T17:56:54.580Z,21.23
2018-01-14T17:59:22.138Z,19.23
2018-01-14T18:01:49.834Z,20.87
2018-01-14T18:04:17.473Z,20.43
2018-01-14T18:06:45.052Z,20.63
2018-01-14T18:09:12.779Z,20.37
2018-01-14T18:11:40.353Z,18.70
2018-01-14T18:14:08.014Z,20.90
2018-01-14T18:16:35.707Z,19.60
2018-01-14T18:19:03.322Z,20.50
2018-01-14T18:21:31.860Z,21.37
2018-01-14T18:23:59.460Z,21.03
2018-01-14T18:26:27.873Z,21.00
2018-01-14T18:28:55.418Z,20.83
2018-01-14T18:31:26.310Z,21.00
2018-01-14T18:33:53.938Z,20.60
2018-01-14T18:36:21.585Z,20.13
2018-01-14T18:38:49.297Z,20.27
2018-01-14T18:41:16.894Z,25.27
2018-01-14T18:43:44.414Z,34.73
2018-01-14T18:46:12.041Z,34.00
2018-01-14T18:48:40.280Z,30.53
2018-01-14T18:51:08.629Z,31.10
2018-01-14T18:53:36.183Z,27.27
2018-01-14T18:56:04.049Z,25.10
2018-01-14T18:58:32.388Z,22.67
2018-01-14T19:01:00.175Z,23.37
2018-01-14T19:03:28.060Z,26.57
2018-01-14T19:05:55.601Z,25.57
2018-01-14T19:08:24.520Z,24.50
2018-01-14T19:10:52.085Z,21.87
2018-01-14T19:13:19.716Z,23.30
2018-01-14T19:15:47.353Z,20.60
2018-01-14T19:18:14.989Z,21.60
2018-01-14T19:20:44.122Z,20.77
2018-01-14T19:23:11.736Z,20.40
2018-01-14T19:25:39.362Z,20.37
2018-01-14T19:28:07.078Z,20.80
2018-01-14T19:30:34.712Z,20.40
2018-01-14T19:33:04.574Z,20.53
2018-01-14T19:35:32.205Z,20.17
2018-01-14T19:37:59.797Z,19.87
2018-01-14T19:40:27.405Z,20.77
2018-01-14T19:42:55.028Z,20.57
2018-01-14T19:45:23.543Z,22.47
2018-01-14T19:47:51.153Z,20.60
2018-01-14T19:50:18.719Z,20.40
2018-01-14T19:52:48.463Z,21.73
2018-01-14T19:55:17.799Z,21.40
2018-01-14T19:57:46.134Z,20.00
2018-01-14T20:00:13.918Z,21.83
2018-01-14T20:02:41.518Z,21.73
2018-01-14T20:05:09.650Z,20.80
2018-01-14T20:07:37.247Z,20.00
2018-01-14T20:10:05.732Z,21.97
2018-01-14T20:12:33.274Z,19.17
2018-01-14T20:15:01.774Z,21.00
2018-01-14T20:17:29.630Z,19.90
2018-01-14T20:19:57.275Z,21.20
2018-01-14T20:22:24.918Z,20.93
2018-01-14T20:24:52.483Z,18.73
2018-01-14T20:27:20.799Z,20.80
2018-01-14T20:29:48.383Z,18.13
2018-01-14T20:32:15.984Z,19.93
2018-01-14T20:34:43.547Z,20.73
2018-01-14T20:37:11.144Z,20.50
2018-01-14T20:39:39.682Z,22.10
2018-01-14T20:42:07.345Z,23.13
2018-01-14T20:47:28.973Z,21.77
2018-01-14T20:49:56.613Z,24.23
2018-01-14T20:52:24.993Z,22.10
2018-01-14T20:54:52.542Z,23.77
2018-01-14T20:57:20.183Z,23.57
2018-01-14T20:59:47.901Z,23.50
2018-01-14T21:02:15.459Z,24.90
2018-01-14T21:04:43.031Z,24.90
2018-01-14T21:07:10.661Z,22.43
2018-01-14T21:09:38.253Z,22.67
2018-01-14T21:12:05.871Z,22.30
2018-01-14T21:14:33.511Z,19.10
2018-01-14T21:17:01.136Z,20.80
2018-01-14T21:19:28.782Z,19.87
2018-01-14T21:21:56.353Z,20.17
2018-01-14T21:24:23.959Z,20.50
2018-01-14T21:26:52.392Z,22.40
2018-01-14T21:29:19.893Z,21.40
2018-01-14T21:31:48.502Z,19.70
2018-01-14T21:34:16.041Z,18.73
2018-01-14T21:36:43.667Z,17.33
2018-01-14T21:39:11.238Z,18.37
2018-01-14T21:41:38.820Z,20.40
2018-01-14T21:44:06.451Z,18.13
2018-01-14T21:46:34.006Z,19.50
2018-01-14T21:49:01.586Z,19.27
2018-01-14T21:51:29.350Z,19.23
2018-01-14T21:53:57.000Z,18.50
2018-01-14T21:56:24.582Z,20.90
2018-01-14T21:58:53.502Z,19.10
2018-01-14T22:01:21.042Z,19.23
2018-01-14T22:03:48.576Z,19.30
2018-01-14T22:06:16.175Z,19.63
2018-01-14T22:08:43.876Z,21.43
2018-01-14T22:11:12.435Z,19.93
2018-01-14T22:13:39.992Z,20.40
2018-01-14T22:16:07.641Z,20.03
2018-01-14T22:18:35.311Z,20.47
2018-01-14T22:21:02.863Z,20.00
2018-01-14T22:23:30.440Z,21.80
2018-01-14T22:25:58.840Z,23.37
2018-01-14T22:28:26.393Z,20.33
2018-01-14T22:30:53.967Z,22.53
2018-01-14T22:33:22.321Z,21.53
2018-01-14T22:35:49.890Z,22.93
2018-01-14T22:38:17.438Z,21.57
2018-01-14T22:40:45.591Z,21.37
2018-01-14T22:43:13.926Z,22.67
2018-01-14T22:45:41.541Z,22.17
2018-01-14T22:48:09.131Z,23.83
2018-01-14T22:50:37.440Z,22.80
2018-01-14T22:53:05.496Z,22.33
2018-01-14T22:55:33.817Z,20.87
2018-01-14T22:58:02.119Z,20.57
2018-01-14T23:00:30.587Z,22.30
2018-01-14T23:02:58.885Z,21.53
2018-01-14T23:05:26.481Z,21.80
2018-01-14T23:07:54.759Z,21.87
2018-01-14T23:10:22.289Z,21.87
2018-01-14T23:12:49.896Z,23.37
2018-01-14T23:15:18.755Z,19.20
2018-01-14T23:17:46.296Z,21.30
2018-01-14T23:20:15.320Z,22.07
2018-01-14T23:22:43.385Z,23.13
2018-01-14T23:25:11.761Z,21.50
2018-01-14T23:27:39.367Z,22.57
2018-01-14T23:30:07.092Z,21.87
2018-01-14T23:32:34.629Z,23.93
2018-01-14T23:35:02.194Z,21.90
2018-01-14T23:37:29.746Z,22.00
2018-01-14T23:39:57.275Z,22.97
2018-01-14T23:42:24.845Z,23.13
2018-01-14T23:44:53.306Z,22.57
2018-01-14T23:47:20.887Z,23.10
2018-01-14T23:49:48.405Z,24.43
2018-01-14T23:52:15.993Z,23.57
2018-01-14T23:54:43.807Z,24.00
2018-01-14T23:57:11.403Z,24.13
2018-01-14T23:59:39.946Z,22.23
